Time;durP1;ratioP1;P1;durP2;ratioP2;P2;SDS_P1;SDS_P2;PMS_P1;PMS_P2;Temp;Humidity;BMP_temperature;BMP_pressure;BME280_temperature;BME280_humidity;BME280_pressure;Samples;Min_cycle;Max_cycle;Signal;HPM_P1;HPM_P2
2021/07/19 00:01:13;;;;;;;31.92;20.98;;;;;;;;;;4996822;28;20289;-68
2021/07/19 00:03:38;;;;;;;31.83;20.77;;;;;;;;;;4971471;28;20111;-67
2021/07/19 00:06:03;;;;;;;29.00;20.63;;;;;;;;;;4971733;28;20038;-67
2021/07/19 00:08:29;;;;;;;30.20;21.20;;;;;;;;;;4971530;28;20360;-67
2021/07/19 00:10:54;;;;;;;34.33;22.42;;;;;;;;;;4971729;28;20054;-67
2021/07/19 00:13:19;;;;;;;24.13;18.98;;;;;;;;;;4976629;28;20099;-67
2021/07/19 00:15:44;;;;;;;24.38;19.25;;;;;;;;;;4990928;28;20027;-67
2021/07/19 00:18:10;;;;;;;37.38;22.92;;;;;;;;;;4991095;28;20677;-67
2021/07/19 00:20:35;;;;;;;45.67;24.27;;;;;;;;;;4973320;28;20061;-67
2021/07/19 00:23:00;;;;;;;29.00;19.93;;;;;;;;;;4972833;28;20038;-67
2021/07/19 00:25:26;;;;;;;29.73;20.97;;;;;;;;;;4990543;28;20262;-67
2021/07/19 00:27:55;;;;;;;49.90;27.65;;;;;;;;;;4992842;28;20724;-67
2021/07/19 00:30:20;;;;;;;51.58;27.35;;;;;;;;;;4993742;28;20050;-67
2021/07/19 00:32:45;;;;;;;41.65;25.48;;;;;;;;;;4970579;28;20035;-67
2021/07/19 00:35:11;;;;;;;61.60;29.73;;;;;;;;;;4969832;28;20051;-67
2021/07/19 00:37:37;;;;;;;52.75;29.10;;;;;;;;;;4970750;28;20023;-66
2021/07/19 00:40:13;;;;;;;57.65;30.00;;;;;;;;;;4973003;28;20635;-68
2021/07/19 00:42:40;;;;;;;55.55;26.75;;;;;;;;;;4970446;28;20031;-66
2021/07/19 00:45:10;;;;;;;27.55;19.27;;;;;;;;;;4986819;28;20117;-67
2021/07/19 00:47:35;;;;;;;26.85;18.33;;;;;;;;;;4972873;28;20034;-67
2021/07/19 00:50:00;;;;;;;45.40;25.77;;;;;;;;;;4990138;28;20120;-67
2021/07/19 00:52:25;;;;;;;36.13;21.80;;;;;;;;;;4989439;28;20030;-66
2021/07/19 00:54:51;;;;;;;30.08;21.15;;;;;;;;;;4991945;28;20300;-67
2021/07/19 00:57:17;;;;;;;32.35;20.60;;;;;;;;;;4990121;28;20073;-66
2021/07/19 00:59:43;;;;;;;39.08;22.02;;;;;;;;;;4989546;28;20117;-66
2021/07/19 01:02:09;;;;;;;34.53;22.20;;;;;;;;;;4989710;28;20045;-67
2021/07/19 01:04:35;;;;;;;28.45;19.83;;;;;;;;;;4989442;28;20330;-66
2021/07/19 01:07:04;;;;;;;29.50;19.33;;;;;;;;;;4992025;28;20046;-66
2021/07/19 01:09:29;;;;;;;43.60;25.25;;;;;;;;;;4989848;28;20157;-67
2021/07/19 01:11:56;;;;;;;28.95;19.80;;;;;;;;;;5011415;23;20124;-70
2021/07/19 01:14:21;;;;;;;44.47;23.98;;;;;;;;;;5008627;28;20054;-71
2021/07/19 01:16:46;;;;;;;24.92;17.85;;;;;;;;;;5009341;28;20117;-70
2021/07/19 01:19:12;;;;;;;25.60;18.15;;;;;;;;;;5011316;28;20025;-70
2021/07/19 01:21:50;;;;;;;18.23;16.17;;;;;;;;;;5009382;28;20045;-71
2021/07/19 01:24:34;;;;;;;19.85;16.38;;;;;;;;;;5007500;28;20053;-71
2021/07/19 01:27:18;;;;;;;17.05;15.25;;;;;;;;;;5009422;28;20033;-70
2021/07/19 01:29:43;;;;;;;26.92;18.98;;;;;;;;;;5008819;28;20038;-71
2021/07/19 01:32:08;;;;;;;21.88;16.58;;;;;;;;;;5007565;28;20041;-72
2021/07/19 01:34:35;;;;;;;20.83;17.05;;;;;;;;;;5008949;28;20561;-70
2021/07/19 01:37:02;;;;;;;21.90;16.42;;;;;;;;;;5010911;28;20018;-71
2021/07/19 01:39:28;;;;;;;18.52;16.33;;;;;;;;;;5009157;28;20446;-71
2021/07/19 01:41:54;;;;;;;17.08;15.27;;;;;;;;;;5007855;28;20030;-72
2021/07/19 01:44:20;;;;;;;17.40;15.57;;;;;;;;;;5008738;28;20038;-71
2021/07/19 01:46:47;;;;;;;28.63;19.35;;;;;;;;;;5024642;28;27910;-71
2021/07/19 01:49:13;;;;;;;19.98;16.73;;;;;;;;;;5010638;28;20029;-71
2021/07/19 01:51:39;;;;;;;18.67;15.63;;;;;;;;;;5008976;28;20072;-71
2021/07/19 01:54:04;;;;;;;18.60;15.38;;;;;;;;;;5007788;28;20129;-70
2021/07/19 01:56:30;;;;;;;26.60;17.52;;;;;;;;;;5007288;28;20109;-71
2021/07/19 01:58:57;;;;;;;18.48;15.65;;;;;;;;;;5006867;28;20462;-71
2021/07/19 02:01:23;;;;;;;38.35;22.38;;;;;;;;;;5010480;28;20050;-71
2021/07/19 02:03:48;;;;;;;28.55;19.67;;;;;;;;;;5007110;28;20181;-71
2021/07/19 02:06:14;;;;;;;19.00;15.55;;;;;;;;;;5008713;28;20498;-71
2021/07/19 02:08:40;;;;;;;21.75;17.00;;;;;;;;;;5007397;28;20508;-71
2021/07/19 02:11:07;;;;;;;18.02;15.13;;;;;;;;;;5008634;28;20041;-71
2021/07/19 02:13:34;;;;;;;22.88;17.27;;;;;;;;;;5008026;28;20104;-70
2021/07/19 02:16:00;;;;;;;25.67;17.60;;;;;;;;;;5010203;28;20084;-70
2021/07/19 02:18:26;;;;;;;29.60;20.73;;;;;;;;;;5008366;28;20511;-70
2021/07/19 02:20:53;;;;;;;28.45;18.50;;;;;;;;;;5008594;28;20034;-70
2021/07/19 02:23:19;;;;;;;20.88;16.15;;;;;;;;;;5022770;28;20030;-70
2021/07/19 02:25:45;;;;;;;28.02;18.52;;;;;;;;;;5007806;28;20490;-69
2021/07/19 02:28:11;;;;;;;30.17;21.17;;;;;;;;;;5025410;28;20076;-70
2021/07/19 02:30:37;;;;;;;25.08;17.40;;;;;;;;;;5007940;28;20054;-70
2021/07/19 02:33:03;;;;;;;44.83;24.13;;;;;;;;;;5007753;28;20117;-69
2021/07/19 02:35:28;;;;;;;39.30;24.15;;;;;;;;;;5008294;28;20070;-70
2021/07/19 02:37:58;;;;;;;25.30;19.35;;;;;;;;;;5008397;28;20085;-70
2021/07/19 02:40:24;;;;;;;41.85;25.98;;;;;;;;;;5010350;28;20014;-70
2021/07/19 02:42:51;;;;;;;28.30;20.35;;;;;;;;;;5007893;28;20053;-70
2021/07/19 02:45:17;;;;;;;47.20;25.48;;;;;;;;;;5022908;28;20026;-70
2021/07/19 02:47:44;;;;;;;22.05;17.15;;;;;;;;;;5008246;28;20034;-70
2021/07/19 02:50:10;;;;;;;43.88;25.05;;;;;;;;;;5007976;28;20042;-70
2021/07/19 02:52:35;;;;;;;41.10;24.90;;;;;;;;;;5022608;28;20032;-69
2021/07/19 02:55:02;;;;;;;37.15;23.77;;;;;;;;;;5010182;28;20026;-70
2021/07/19 02:57:27;;;;;;;43.45;23.02;;;;;;;;;;5008112;28;20026;-70
2021/07/19 02:59:53;;;;;;;33.05;21.33;;;;;;;;;;5009942;28;20026;-70
2021/07/19 03:02:20;;;;;;;21.45;17.83;;;;;;;;;;5011233;28;20089;-70
2021/07/19 03:04:47;;;;;;;46.65;27.13;;;;;;;;;;5011857;28;20583;-70
2021/07/19 03:07:16;;;;;;;38.70;24.25;;;;;;;;;;5013897;28;20096;-70
2021/07/19 03:09:41;;;;;;;32.40;19.30;;;;;;;;;;5011726;28;20519;-70
2021/07/19 03:12:07;;;;;;;42.72;23.73;;;;;;;;;;5011465;28;20038;-69
2021/07/19 03:14:34;;;;;;;32.40;21.58;;;;;;;;;;5011233;28;20026;-69
2021/07/19 03:17:01;;;;;;;24.48;18.75;;;;;;;;;;5010223;28;20049;-70
2021/07/19 03:19:27;;;;;;;38.05;22.77;;;;;;;;;;5013727;28;20021;-69
2021/07/19 03:21:54;;;;;;;21.67;16.75;;;;;;;;;;5011924;28;20038;-70
2021/07/19 03:24:21;;;;;;;22.83;17.85;;;;;;;;;;5026480;28;20034;-70
2021/07/19 03:26:46;;;;;;;27.80;19.40;;;;;;;;;;5011139;28;20045;-70
2021/07/19 03:29:11;;;;;;;21.83;18.17;;;;;;;;;;5011077;28;20034;-70
2021/07/19 03:31:37;;;;;;;27.10;19.55;;;;;;;;;;5011227;28;20025;-69
2021/07/19 03:34:05;;;;;;;25.90;19.02;;;;;;;;;;5012558;28;20076;-70
2021/07/19 03:36:31;;;;;;;23.75;19.52;;;;;;;;;;5026289;28;20171;-71
2021/07/19 03:38:56;;;;;;;36.97;22.98;;;;;;;;;;5011054;28;20524;-72
2021/07/19 03:41:23;;;;;;;19.90;17.15;;;;;;;;;;5010872;28;20049;-70
2021/07/19 03:43:49;;;;;;;19.58;15.45;;;;;;;;;;5010431;28;20391;-71
2021/07/19 03:46:15;;;;;;;18.50;16.60;;;;;;;;;;5012756;28;20050;-70
2021/07/19 03:48:40;;;;;;;16.80;15.15;;;;;;;;;;5024893;28;20054;-69
2021/07/19 03:51:06;;;;;;;16.30;14.63;;;;;;;;;;5010835;28;20034;-69
2021/07/19 03:53:31;;;;;;;17.65;15.85;;;;;;;;;;5009001;28;20112;-70
2021/07/19 03:55:57;;;;;;;16.20;14.52;;;;;;;;;;5010836;28;20048;-73
2021/07/19 03:58:23;;;;;;;15.02;13.40;;;;;;;;;;5012813;28;20076;-72
2021/07/19 04:00:51;;;;;;;14.00;12.77;;;;;;;;;;5010428;28;20025;-73
2021/07/19 04:03:25;;;;;;;16.45;14.85;;;;;;;;;;5010067;28;20684;-73
2021/07/19 04:05:57;;;;;;;14.52;13.13;;;;;;;;;;5007855;28;20415;-67
2021/07/19 04:08:23;;;;;;;12.73;11.73;;;;;;;;;;5008424;28;20049;-72
2021/07/19 04:10:50;;;;;;;11.23;10.32;;;;;;;;;;5009270;28;20153;-70
2021/07/19 04:13:16;;;;;;;14.05;12.73;;;;;;;;;;5012274;28;20033;-73
2021/07/19 04:15:46;;;;;;;11.70;10.70;;;;;;;;;;5010114;28;20678;-72
2021/07/19 04:18:11;;;;;;;11.15;10.25;;;;;;;;;;5010870;28;20066;-72
2021/07/19 04:20:36;;;;;;;11.73;10.65;;;;;;;;;;5010425;28;20066;-70
2021/07/19 04:23:01;;;;;;;10.40;9.60;;;;;;;;;;5009771;28;20057;-69
2021/07/19 04:25:27;;;;;;;9.52;8.52;;;;;;;;;;5012081;28;20014;-70
2021/07/19 04:27:53;;;;;;;7.88;7.28;;;;;;;;;;5006083;28;20153;-69
2021/07/19 04:30:20;;;;;;;8.90;8.10;;;;;;;;;;5009105;28;20060;-70
2021/07/19 04:32:47;;;;;;;8.80;8.00;;;;;;;;;;5009631;28;20096;-69
2021/07/19 04:35:21;;;;;;;7.90;7.20;;;;;;;;;;5006607;28;21627;-72
2021/07/19 04:37:48;;;;;;;8.52;7.93;;;;;;;;;;5008953;28;20069;-70
2021/07/19 04:40:15;;;;;;;10.57;9.65;;;;;;;;;;5027177;28;20491;-70
2021/07/19 04:42:40;;;;;;;7.57;6.97;;;;;;;;;;5009674;28;20096;-69
2021/07/19 04:45:06;;;;;;;9.18;8.48;;;;;;;;;;5008502;28;20038;-71
2021/07/19 04:47:31;;;;;;;8.13;7.43;;;;;;;;;;5009744;28;20026;-70
2021/07/19 04:49:56;;;;;;;8.75;8.15;;;;;;;;;;5010178;28;20048;-70
2021/07/19 04:52:22;;;;;;;7.83;7.13;;;;;;;;;;5011319;28;20460;-69
2021/07/19 04:54:47;;;;;;;7.07;6.38;;;;;;;;;;5009866;28;20269;-71
2021/07/19 04:57:13;;;;;;;6.28;5.78;;;;;;;;;;5009810;28;20049;-71
2021/07/19 04:59:41;;;;;;;5.68;5.28;;;;;;;;;;5009480;28;20041;-70
2021/07/19 05:02:10;;;;;;;7.18;6.57;;;;;;;;;;5009157;28;20129;-69
2021/07/19 05:04:35;;;;;;;6.45;5.93;;;;;;;;;;5009311;28;20022;-70
2021/07/19 05:07:01;;;;;;;7.00;6.47;;;;;;;;;;5011781;28;20452;-70
2021/07/19 05:09:27;;;;;;;5.95;5.55;;;;;;;;;;5024617;28;20503;-70
2021/07/19 05:11:53;;;;;;;6.50;5.90;;;;;;;;;;5009442;28;20535;-70
2021/07/19 05:14:19;;;;;;;5.80;5.30;;;;;;;;;;5006063;28;20034;-71
2021/07/19 05:16:44;;;;;;;8.05;5.45;;;;;;;;;;5009207;28;20014;-69
2021/07/19 05:19:09;;;;;;;6.30;5.80;;;;;;;;;;5011479;28;20018;-68
2021/07/19 05:21:35;;;;;;;5.97;5.47;;;;;;;;;;5009025;28;20038;-69
2021/07/19 05:24:01;;;;;;;5.68;5.18;;;;;;;;;;5008812;28;20085;-70
2021/07/19 05:26:26;;;;;;;6.25;5.75;;;;;;;;;;5008955;28;20080;-70
2021/07/19 05:28:51;;;;;;;9.37;5.73;;;;;;;;;;5006860;28;20050;-69
2021/07/19 05:31:16;;;;;;;6.47;6.00;;;;;;;;;;5009831;28;20322;-70
2021/07/19 05:33:41;;;;;;;6.75;6.15;;;;;;;;;;5008986;28;20277;-69
2021/07/19 05:36:07;;;;;;;5.93;5.43;;;;;;;;;;5009288;28;20026;-70
2021/07/19 05:38:32;;;;;;;6.93;6.32;;;;;;;;;;5009255;28;20343;-69
2021/07/19 05:40:57;;;;;;;7.68;7.07;;;;;;;;;;5008839;28;20408;-69
2021/07/19 05:43:22;;;;;;;7.50;6.80;;;;;;;;;;5011095;28;20037;-71
2021/07/19 05:45:49;;;;;;;7.35;6.57;;;;;;;;;;5009284;28;20025;-70
2021/07/19 05:48:14;;;;;;;8.07;7.40;;;;;;;;;;5009735;28;20041;-70
2021/07/19 05:50:39;;;;;;;7.47;6.87;;;;;;;;;;5007328;28;20050;-70
2021/07/19 05:53:05;;;;;;;7.20;6.63;;;;;;;;;;5008293;28;20777;-71
2021/07/19 05:55:31;;;;;;;8.15;7.45;;;;;;;;;;5008704;28;20026;-70
2021/07/19 05:57:59;;;;;;;8.65;7.95;;;;;;;;;;5009335;28;20042;-71
2021/07/19 06:00:25;;;;;;;8.93;8.10;;;;;;;;;;5008406;28;20062;-70
2021/07/19 06:02:50;;;;;;;9.23;8.32;;;;;;;;;;5008128;28;20125;-70
2021/07/19 06:05:15;;;;;;;12.70;9.07;;;;;;;;;;5008186;28;20065;-70
2021/07/19 06:07:40;;;;;;;9.05;8.20;;;;;;;;;;5007710;28;20890;-70
2021/07/19 06:10:07;;;;;;;8.10;7.40;;;;;;;;;;5010524;28;20026;-70
2021/07/19 06:12:33;;;;;;;8.82;8.23;;;;;;;;;;5008057;28;20634;-70
2021/07/19 06:14:59;;;;;;;8.55;7.95;;;;;;;;;;5008142;28;20066;-70
2021/07/19 06:17:24;;;;;;;7.90;7.20;;;;;;;;;;5008629;28;20072;-70
2021/07/19 06:19:49;;;;;;;9.70;8.60;;;;;;;;;;5008526;28;20049;-70
2021/07/19 06:22:16;;;;;;;9.27;8.43;;;;;;;;;;5010007;28;20026;-70
2021/07/19 06:24:41;;;;;;;8.93;8.07;;;;;;;;;;5008468;28;20335;-70
2021/07/19 06:27:06;;;;;;;8.05;7.45;;;;;;;;;;5007167;28;20026;-70
2021/07/19 06:29:32;;;;;;;8.50;7.80;;;;;;;;;;5008303;28;20073;-70
2021/07/19 06:31:58;;;;;;;9.43;8.45;;;;;;;;;;5007925;28;20081;-70
2021/07/19 06:34:24;;;;;;;9.18;8.38;;;;;;;;;;5011237;28;20022;-71
2021/07/19 06:36:49;;;;;;;8.02;7.35;;;;;;;;;;5012341;28;20041;-67
2021/07/19 06:39:15;;;;;;;9.43;8.25;;;;;;;;;;5009994;28;20088;-67
2021/07/19 06:41:40;;;;;;;9.70;8.90;;;;;;;;;;5010118;28;20514;-58
2021/07/19 06:44:05;;;;;;;9.93;8.77;;;;;;;;;;5011656;28;20033;-60
2021/07/19 06:46:31;;;;;;;9.13;8.35;;;;;;;;;;5011116;28;20049;-64
2021/07/19 06:48:56;;;;;;;9.70;8.70;;;;;;;;;;5013778;28;20650;-59
2021/07/19 06:51:21;;;;;;;10.80;9.63;;;;;;;;;;5011903;28;20276;-59
2021/07/19 06:53:46;;;;;;;9.15;8.23;;;;;;;;;;5011381;28;20261;-58
2021/07/19 06:56:11;;;;;;;9.75;8.77;;;;;;;;;;5010303;28;20026;-61
2021/07/19 06:58:37;;;;;;;10.40;9.27;;;;;;;;;;5011854;28;20014;-61
2021/07/19 07:01:02;;;;;;;8.53;7.70;;;;;;;;;;5013169;28;20356;-63
2021/07/19 07:03:27;;;;;;;9.20;8.30;;;;;;;;;;5011132;28;20643;-61
2021/07/19 07:05:52;;;;;;;10.18;9.38;;;;;;;;;;5011746;28;20128;-62
2021/07/19 07:08:18;;;;;;;9.10;8.40;;;;;;;;;;5011773;28;20030;-64
2021/07/19 07:10:43;;;;;;;9.95;9.15;;;;;;;;;;5011367;28;20786;-62
2021/07/19 07:13:11;;;;;;;9.87;9.03;;;;;;;;;;5013024;28;20435;-64
2021/07/19 07:15:37;;;;;;;12.93;9.07;;;;;;;;;;5011000;28;20463;-62
2021/07/19 07:18:04;;;;;;;10.32;8.93;;;;;;;;;;5010951;28;20053;-61
2021/07/19 07:20:29;;;;;;;9.82;8.95;;;;;;;;;;5026643;28;20118;-65
2021/07/19 07:22:55;;;;;;;10.65;9.52;;;;;;;;;;5010924;28;20116;-60
2021/07/19 07:25:20;;;;;;;9.57;8.80;;;;;;;;;;5013237;28;20018;-60
2021/07/19 07:27:45;;;;;;;9.77;8.88;;;;;;;;;;5026579;28;20436;-61
2021/07/19 07:30:11;;;;;;;9.23;8.48;;;;;;;;;;5010553;28;20369;-62
2021/07/19 07:32:37;;;;;;;9.98;8.98;;;;;;;;;;5010662;28;20117;-62
2021/07/19 07:35:03;;;;;;;10.13;8.15;;;;;;;;;;5011075;28;20309;-61
2021/07/19 07:37:28;;;;;;;10.45;9.18;;;;;;;;;;5012947;28;20026;-62
2021/07/19 07:39:54;;;;;;;9.85;9.05;;;;;;;;;;5010823;28;20442;-62
2021/07/19 07:42:19;;;;;;;9.17;8.37;;;;;;;;;;5010474;28;20480;-61
2021/07/19 07:44:44;;;;;;;11.13;10.02;;;;;;;;;;5010669;28;20734;-61
2021/07/19 07:47:09;;;;;;;9.77;9.00;;;;;;;;;;5010298;28;20034;-62
2021/07/19 07:49:36;;;;;;;9.63;8.73;;;;;;;;;;5010629;28;20160;-64
2021/07/19 07:52:01;;;;;;;10.52;9.48;;;;;;;;;;5012812;28;20022;-63
2021/07/19 07:54:27;;;;;;;12.20;9.40;;;;;;;;;;5010034;28;20125;-62
2021/07/19 07:56:52;;;;;;;9.82;8.95;;;;;;;;;;5010625;28;20022;-63
2021/07/19 07:59:18;;;;;;;9.93;9.02;;;;;;;;;;5010450;28;20030;-63
2021/07/19 08:01:43;;;;;;;12.60;8.80;;;;;;;;;;5008547;28;20045;-64
2021/07/19 08:04:08;;;;;;;9.65;8.85;;;;;;;;;;5011667;28;20293;-63
2021/07/19 08:06:33;;;;;;;9.88;8.48;;;;;;;;;;5009193;28;20029;-64
2021/07/19 08:08:59;;;;;;;11.90;9.50;;;;;;;;;;5008669;28;20741;-64
2021/07/19 08:11:26;;;;;;;11.85;9.38;;;;;;;;;;5010423;28;20305;-63
2021/07/19 08:13:51;;;;;;;9.93;9.02;;;;;;;;;;5007579;28;20057;-63
2021/07/19 08:16:17;;;;;;;10.13;9.23;;;;;;;;;;5011782;28;20030;-63
2021/07/19 08:18:42;;;;;;;10.15;9.27;;;;;;;;;;5010354;28;20359;-63
2021/07/19 08:21:07;;;;;;;10.40;8.82;;;;;;;;;;5008375;28;20038;-63
2021/07/19 08:23:33;;;;;;;9.53;8.60;;;;;;;;;;5007543;28;20029;-61
2021/07/19 08:25:58;;;;;;;9.48;8.50;;;;;;;;;;5010250;28;20832;-65
2021/07/19 08:28:23;;;;;;;10.93;9.35;;;;;;;;;;5011982;28;20109;-64
2021/07/19 08:30:49;;;;;;;9.23;8.35;;;;;;;;;;5009632;28;20070;-64
2021/07/19 08:33:14;;;;;;;9.63;8.80;;;;;;;;;;5008093;28;20038;-64
2021/07/19 08:35:39;;;;;;;13.00;9.00;;;;;;;;;;5010069;28;20018;-64
2021/07/19 08:38:06;;;;;;;10.63;9.23;;;;;;;;;;5008721;28;20050;-64
2021/07/19 08:40:31;;;;;;;9.57;8.52;;;;;;;;;;5008861;28;20029;-64
2021/07/19 08:42:57;;;;;;;9.15;8.20;;;;;;;;;;5011201;28;20375;-64
2021/07/19 08:45:23;;;;;;;8.25;7.32;;;;;;;;;;5007852;28;20093;-64
2021/07/19 08:47:49;;;;;;;8.93;7.68;;;;;;;;;;5009581;28;20033;-64
2021/07/19 08:50:15;;;;;;;7.57;6.85;;;;;;;;;;4991270;28;20537;-64
2021/07/19 08:52:41;;;;;;;7.63;6.70;;;;;;;;;;5006956;28;20018;-64
2021/07/19 08:55:08;;;;;;;7.85;7.10;;;;;;;;;;5011491;28;20018;-64
2021/07/19 08:57:33;;;;;;;8.10;7.32;;;;;;;;;;5009048;28;20030;-64
2021/07/19 09:00:01;;;;;;;7.25;6.65;;;;;;;;;;5008284;28;20038;-64
2021/07/19 09:02:28;;;;;;;8.18;7.38;;;;;;;;;;5008723;28;20092;-64
2021/07/19 09:04:54;;;;;;;7.75;6.90;;;;;;;;;;5009183;28;20061;-64
2021/07/19 09:07:20;;;;;;;6.63;5.97;;;;;;;;;;5011384;28;20045;-78
2021/07/19 09:09:48;;;;;;;6.97;6.32;;;;;;;;;;5011865;28;20312;-73
2021/07/19 09:12:14;;;;;;;8.13;6.82;;;;;;;;;;5011389;28;20033;-77
2021/07/19 09:14:40;;;;;;;8.00;7.40;;;;;;;;;;5015668;28;20025;-76
2021/07/19 09:17:06;;;;;;;7.95;6.80;;;;;;;;;;5014189;28;20277;-74
2021/07/19 09:19:41;;;;;;;7.90;7.20;;;;;;;;;;5012844;28;20022;-76
2021/07/19 09:22:07;;;;;;;6.95;6.40;;;;;;;;;;5011474;28;20041;-76
2021/07/19 09:24:36;;;;;;;7.18;6.55;;;;;;;;;;5012642;28;20038;-72
2021/07/19 09:27:02;;;;;;;9.18;6.20;;;;;;;;;;5012525;28;20038;-72
2021/07/19 09:29:27;;;;;;;6.68;5.68;;;;;;;;;;5012803;28;20054;-73
2021/07/19 09:31:57;;;;;;;6.80;6.00;;;;;;;;;;5014041;28;20644;-79
2021/07/19 09:34:27;;;;;;;6.35;5.78;;;;;;;;;;5016601;28;20022;-69
2021/07/19 09:36:54;;;;;;;8.50;6.07;;;;;;;;;;5012257;28;20460;-68
2021/07/19 09:39:19;;;;;;;7.65;5.28;;;;;;;;;;5007592;28;20057;-70
2021/07/19 09:41:44;;;;;;;7.05;5.55;;;;;;;;;;5009094;28;20450;-68
2021/07/19 09:44:10;;;;;;;8.00;5.80;;;;;;;;;;5008709;28;20052;-70
2021/07/19 09:46:35;;;;;;;5.60;5.03;;;;;;;;;;5008370;28;20269;-69
2021/07/19 09:49:01;;;;;;;7.63;5.82;;;;;;;;;;5010762;28;20157;-68
2021/07/19 09:51:27;;;;;;;9.15;8.27;;;;;;;;;;5008729;28;20084;-62
2021/07/19 09:53:52;;;;;;;9.18;7.95;;;;;;;;;;5008398;28;20499;-62
2021/07/19 09:56:22;;;;;;;6.13;5.57;;;;;;;;;;5007556;28;20037;-62
2021/07/19 09:58:52;;;;;;;8.98;6.43;;;;;;;;;;5008367;28;20079;-62
2021/07/19 10:01:27;;;;;;;6.82;6.10;;;;;;;;;;5009981;28;20018;-62
2021/07/19 10:04:06;;;;;;;8.13;7.30;;;;;;;;;;5007930;28;20037;-62
2021/07/19 10:06:31;;;;;;;8.35;6.78;;;;;;;;;;5006906;28;20040;-62
2021/07/19 10:08:56;;;;;;;6.77;5.73;;;;;;;;;;5006978;28;20128;-62
2021/07/19 10:11:22;;;;;;;5.97;5.40;;;;;;;;;;5006430;28;20273;-62
2021/07/19 10:13:48;;;;;;;7.43;6.50;;;;;;;;;;5007874;28;20026;-62
2021/07/19 10:16:14;;;;;;;7.28;6.55;;;;;;;;;;5010199;28;20838;-62
2021/07/19 10:18:39;;;;;;;6.97;6.30;;;;;;;;;;5006126;28;20030;-62
2021/07/19 10:21:06;;;;;;;8.38;6.05;;;;;;;;;;5007934;28;20022;-60
2021/07/19 10:23:31;;;;;;;7.50;5.78;;;;;;;;;;5007748;28;20479;-61
2021/07/19 10:25:57;;;;;;;6.47;5.53;;;;;;;;;;5007846;28;20037;-60
2021/07/19 10:28:22;;;;;;;6.22;5.72;;;;;;;;;;5010114;28;20018;-59
2021/07/19 10:30:48;;;;;;;8.85;5.55;;;;;;;;;;5007522;28;20133;-62
2021/07/19 10:33:13;;;;;;;6.72;5.78;;;;;;;;;;5006137;28;20030;-61
2021/07/19 10:35:39;;;;;;;7.50;5.50;;;;;;;;;;5007435;28;20034;-62
2021/07/19 10:38:08;;;;;;;5.88;5.25;;;;;;;;;;5008094;28;20049;-61
2021/07/19 10:40:35;;;;;;;5.65;5.13;;;;;;;;;;5006820;28;20070;-65
2021/07/19 10:43:08;;;;;;;5.70;5.20;;;;;;;;;;5009802;28;20367;-65
2021/07/19 10:45:37;;;;;;;5.05;4.60;;;;;;;;;;5008220;28;20053;-66
2021/07/19 10:48:03;;;;;;;5.15;4.68;;;;;;;;;;5007160;28;20038;-65
2021/07/19 10:50:28;;;;;;;5.63;5.07;;;;;;;;;;5007460;28;20096;-65
2021/07/19 10:52:55;;;;;;;7.40;4.38;;;;;;;;;;5006532;28;20375;-66
2021/07/19 10:55:47;;;;;;;6.55;4.50;;;;;;;;;;5009808;28;20577;-65
2021/07/19 10:58:14;;;;;;;6.00;4.72;;;;;;;;;;5005298;28;20085;-65
2021/07/19 11:00:41;;;;;;;5.80;4.68;;;;;;;;;;5008018;28;20042;-66
2021/07/19 11:03:07;;;;;;;4.70;4.07;;;;;;;;;;5006601;28;20125;-66
2021/07/19 11:05:37;;;;;;;5.53;4.57;;;;;;;;;;5007355;28;20088;-65
2021/07/19 11:08:02;;;;;;;5.15;4.38;;;;;;;;;;5008020;28;20097;-65
2021/07/19 11:10:28;;;;;;;7.68;4.47;;;;;;;;;;5009880;28;20114;-66
2021/07/19 11:12:56;;;;;;;5.07;4.00;;;;;;;;;;5007503;28;20045;-65
2021/07/19 11:15:32;;;;;;;6.60;4.18;;;;;;;;;;5007735;28;20038;-65
2021/07/19 11:17:57;;;;;;;4.93;4.30;;;;;;;;;;5007181;28;20440;-65
2021/07/19 11:20:22;;;;;;;4.00;3.70;;;;;;;;;;5009250;28;20033;-65
2021/07/19 11:22:59;;;;;;;6.88;3.80;;;;;;;;;;5010214;28;20268;-65
2021/07/19 11:25:24;;;;;;;7.40;4.10;;;;;;;;;;5013337;28;20494;-65
2021/07/19 11:27:50;;;;;;;3.65;3.35;;;;;;;;;;5010997;28;20045;-66
2021/07/19 11:30:23;;;;;;;6.47;3.60;;;;;;;;;;5010175;28;20038;-66
2021/07/19 11:32:48;;;;;;;5.55;3.53;;;;;;;;;;5009619;28;20034;-65
2021/07/19 11:35:19;;;;;;;6.43;3.65;;;;;;;;;;5009057;28;20742;-65
2021/07/19 11:37:48;;;;;;;7.32;3.50;;;;;;;;;;5010942;28;20022;-66
2021/07/19 11:40:26;;;;;;;7.25;3.42;;;;;;;;;;5013019;28;20101;-65
2021/07/19 11:42:52;;;;;;;4.22;3.05;;;;;;;;;;5010531;28;20181;-65
2021/07/19 11:45:18;;;;;;;6.70;3.45;;;;;;;;;;5010216;28;20041;-65
2021/07/19 11:47:45;;;;;;;7.03;3.55;;;;;;;;;;5010183;28;20034;-65
2021/07/19 11:50:12;;;;;;;5.47;3.28;;;;;;;;;;5010579;28;20049;-65
2021/07/19 11:52:38;;;;;;;6.45;3.22;;;;;;;;;;5010345;28;20013;-66
2021/07/19 11:55:04;;;;;;;5.18;3.13;;;;;;;;;;5012529;28;20485;-65
2021/07/19 11:57:38;;;;;;;6.40;3.47;;;;;;;;;;5010769;28;20109;-65
2021/07/19 12:00:04;;;;;;;6.60;3.30;;;;;;;;;;5009175;28;20037;-65
2021/07/19 12:02:29;;;;;;;5.55;2.90;;;;;;;;;;5009512;28;20546;-65
2021/07/19 12:04:55;;;;;;;5.70;3.10;;;;;;;;;;5010267;28;20026;-66
2021/07/19 12:07:23;;;;;;;8.80;3.50;;;;;;;;;;5011473;28;20562;-65
2021/07/19 12:09:57;;;;;;;5.03;3.10;;;;;;;;;;5009768;28;20293;-66
2021/07/19 12:12:23;;;;;;;5.30;2.95;;;;;;;;;;5008948;28;20549;-65
2021/07/19 12:14:56;;;;;;;6.03;2.95;;;;;;;;;;5010180;28;20029;-65
2021/07/19 12:17:29;;;;;;;7.60;3.28;;;;;;;;;;5009820;28;20529;-65
2021/07/19 12:19:54;;;;;;;6.88;3.20;;;;;;;;;;5009807;28;20042;-65
2021/07/19 12:22:20;;;;;;;8.05;3.30;;;;;;;;;;5011837;28;20022;-65
2021/07/19 12:24:45;;;;;;;6.28;2.58;;;;;;;;;;5008736;28;20026;-66
2021/07/19 12:27:10;;;;;;;3.58;2.75;;;;;;;;;;5009004;28;20049;-65
2021/07/19 12:29:42;;;;;;;5.07;2.47;;;;;;;;;;5008216;28;20046;-66
2021/07/19 12:32:10;;;;;;;4.88;2.65;;;;;;;;;;5008619;28;20168;-65
2021/07/19 12:34:37;;;;;;;8.50;2.45;;;;;;;;;;5008169;28;20089;-65
2021/07/19 12:37:07;;;;;;;4.82;2.65;;;;;;;;;;5012012;28;20021;-65
2021/07/19 12:39:33;;;;;;;4.03;2.50;;;;;;;;;;5008737;28;20064;-65
2021/07/19 12:42:01;;;;;;;3.58;2.60;;;;;;;;;;5009772;28;20042;-65
2021/07/19 12:44:27;;;;;;;4.28;2.65;;;;;;;;;;5009646;28;20037;-66
2021/07/19 12:46:53;;;;;;;5.45;2.65;;;;;;;;;;5007193;28;20104;-66
2021/07/19 12:49:32;;;;;;;8.40;2.80;;;;;;;;;;5026612;28;20132;-66
2021/07/19 12:52:06;;;;;;;3.03;2.60;;;;;;;;;;5008147;28;20181;-65
2021/07/19 12:54:33;;;;;;;3.63;2.53;;;;;;;;;;5009380;28;20038;-65
2021/07/19 12:56:59;;;;;;;3.40;2.30;;;;;;;;;;5009690;28;20030;-65
2021/07/19 12:59:24;;;;;;;3.40;2.45;;;;;;;;;;5007945;28;20048;-65
2021/07/19 13:01:50;;;;;;;5.93;2.60;;;;;;;;;;5008730;28;20562;-66
2021/07/19 13:04:21;;;;;;;5.88;2.50;;;;;;;;;;5010971;28;20111;-65
2021/07/19 13:06:46;;;;;;;;;;;;;;;;;;5010079;28;20038;-65
2021/07/19 13:09:18;;;;;;;7.07;2.67;;;;;;;;;;5009340;28;19924;-66
2021/07/19 13:11:44;;;;;;;2.60;2.10;;;;;;;;;;5008711;28;20042;-65
2021/07/19 13:14:11;;;;;;;2.85;2.20;;;;;;;;;;5023637;23;20025;-66
2021/07/19 13:16:36;;;;;;;3.95;2.58;;;;;;;;;;5027891;28;20104;-65
2021/07/19 13:19:02;;;;;;;4.03;2.35;;;;;;;;;;5030764;28;20093;-65
2021/07/19 13:21:27;;;;;;;3.70;2.53;;;;;;;;;;5028996;28;20515;-65
2021/07/19 13:23:52;;;;;;;3.90;2.30;;;;;;;;;;5028870;28;20041;-65
2021/07/19 13:26:18;;;;;;;6.55;2.33;;;;;;;;;;5028738;28;20034;-66
2021/07/19 13:28:43;;;;;;;3.33;2.30;;;;;;;;;;5028681;28;20507;-66
2021/07/19 13:31:09;;;;;;;5.38;2.60;;;;;;;;;;5030601;28;20272;-65
2021/07/19 13:33:34;;;;;;;3.72;2.90;;;;;;;;;;5012356;28;20120;-65
2021/07/19 13:36:00;;;;;;;3.00;2.40;;;;;;;;;;5008689;28;20480;-65
2021/07/19 13:38:32;;;;;;;4.90;2.70;;;;;;;;;;5009011;28;20040;-64
2021/07/19 13:40:57;;;;;;;6.25;2.65;;;;;;;;;;5008786;28;20061;-66
2021/07/19 13:43:23;;;;;;;5.43;2.65;;;;;;;;;;5010101;28;20484;-65
2021/07/19 13:45:48;;;;;;;2.90;2.57;;;;;;;;;;5007271;28;20149;-65
2021/07/19 13:48:13;;;;;;;2.83;2.35;;;;;;;;;;5009614;28;20365;-65
2021/07/19 13:50:39;;;;;;;6.13;2.67;;;;;;;;;;5022981;28;20532;-67
2021/07/19 13:53:04;;;;;;;3.83;2.72;;;;;;;;;;5028109;28;20037;-66
2021/07/19 13:55:31;;;;;;;3.03;2.53;;;;;;;;;;5030321;28;20447;-66
2021/07/19 13:57:56;;;;;;;3.90;3.03;;;;;;;;;;5028368;28;20034;-66
2021/07/19 14:00:21;;;;;;;6.00;3.10;;;;;;;;;;5026866;28;20530;-65
2021/07/19 14:02:47;;;;;;;3.47;2.43;;;;;;;;;;5018480;28;20037;-66
2021/07/19 14:05:14;;;;;;;4.88;2.55;;;;;;;;;;5019342;28;20022;-65
2021/07/19 14:07:39;;;;;;;2.78;2.20;;;;;;;;;;5028218;28;20093;-64
2021/07/19 14:10:04;;;;;;;4.03;2.40;;;;;;;;;;5029952;28;20199;-66
2021/07/19 14:12:30;;;;;;;3.15;2.80;;;;;;;;;;5027632;28;20376;-66
2021/07/19 14:14:55;;;;;;;4.20;2.33;;;;;;;;;;5028205;28;20053;-66
2021/07/19 14:17:20;;;;;;;3.20;2.50;;;;;;;;;;5027459;28;20069;-66
2021/07/19 14:19:45;;;;;;;4.37;2.90;;;;;;;;;;5011222;28;20340;-66
2021/07/19 14:22:11;;;;;;;3.80;2.67;;;;;;;;;;5007568;28;20269;-66
2021/07/19 14:24:37;;;;;;;3.65;2.20;;;;;;;;;;5008254;28;20273;-66
2021/07/19 14:27:03;;;;;;;6.93;2.50;;;;;;;;;;5008420;28;20042;-66
2021/07/19 14:29:29;;;;;;;4.40;3.03;;;;;;;;;;5008121;28;20125;-66